createdAt,value
2019-03-30T00:01:07.515Z,3.87
2019-03-30T00:03:39.106Z,3.23
2019-03-30T00:06:23.534Z,3.63
2019-03-30T00:08:53.359Z,3.53
2019-03-30T00:11:23.342Z,3.37
2019-03-30T00:13:53.335Z,2.97
2019-03-30T00:16:23.411Z,3.50
2019-03-30T00:18:53.414Z,3.50
2019-03-30T00:21:23.277Z,3.17
2019-03-30T00:23:53.232Z,3.03
2019-03-30T00:26:23.122Z,3.17
2019-03-30T00:28:53.069Z,3.30
2019-03-30T00:31:22.998Z,3.43
2019-03-30T00:33:52.741Z,2.87
2019-03-30T00:36:22.541Z,3.10
2019-03-30T00:38:52.539Z,3.00
2019-03-30T00:41:22.524Z,3.30
2019-03-30T00:43:53.442Z,2.53
2019-03-30T00:46:23.295Z,3.27
2019-03-30T00:48:53.179Z,3.67
2019-03-30T00:51:23.166Z,3.00
2019-03-30T00:53:53.074Z,3.27
2019-03-30T00:56:22.830Z,3.20
2019-03-30T00:58:53.360Z,3.40
2019-03-30T01:01:23.194Z,2.57
2019-03-30T01:03:53.083Z,3.10
2019-03-30T01:06:23.061Z,3.40
2019-03-30T01:08:52.886Z,2.83
2019-03-30T01:11:22.891Z,2.90
2019-03-30T01:13:53.550Z,3.30
2019-03-30T01:16:23.470Z,3.20
2019-03-30T01:18:53.430Z,3.50
2019-03-30T01:21:23.268Z,2.70
2019-03-30T01:23:53.162Z,3.23
2019-03-30T01:26:23.149Z,3.20
2019-03-30T01:28:53.367Z,3.10
2019-03-30T01:31:23.387Z,3.00
2019-03-30T01:33:53.209Z,2.90
2019-03-30T01:36:23.598Z,3.33
2019-03-30T01:38:53.526Z,3.40
2019-03-30T01:41:23.489Z,3.20
2019-03-30T01:43:54.160Z,3.40
2019-03-30T01:46:24.062Z,3.10
2019-03-30T01:48:54.010Z,3.00
2019-03-30T01:51:23.832Z,3.00
2019-03-30T01:53:54.087Z,3.10
2019-03-30T01:56:29.425Z,2.83
2019-03-30T01:59:05.658Z,3.00
2019-03-30T02:01:36.168Z,3.10
2019-03-30T02:04:06.010Z,3.60
2019-03-30T02:06:35.879Z,3.83
2019-03-30T02:09:06.586Z,2.87
2019-03-30T02:12:15.282Z,3.30
2019-03-30T02:14:45.174Z,3.60
2019-03-30T02:17:15.122Z,3.40
2019-03-30T02:19:44.992Z,3.40
2019-03-30T02:22:14.833Z,3.80
2019-03-30T02:24:44.837Z,3.60
2019-03-30T02:27:14.795Z,3.70
2019-03-30T02:29:47.510Z,3.53
2019-03-30T02:32:17.469Z,3.50
2019-03-30T02:34:47.459Z,3.53
2019-03-30T02:37:17.393Z,3.30
2019-03-30T02:39:47.547Z,4.47
2019-03-30T02:42:17.525Z,3.90
2019-03-30T02:44:47.366Z,3.80
2019-03-30T02:47:17.556Z,4.00
2019-03-30T02:49:47.439Z,3.30
2019-03-30T02:52:19.044Z,3.43
2019-03-30T02:54:48.937Z,3.60
2019-03-30T02:57:18.727Z,3.10
2019-03-30T02:59:48.622Z,4.10
2019-03-30T03:02:18.508Z,3.70
2019-03-30T03:04:49.742Z,3.90
2019-03-30T03:07:19.665Z,3.63
2019-03-30T03:09:59.631Z,4.30
2019-03-30T03:12:29.528Z,3.60
2019-03-30T03:15:00.622Z,3.77
2019-03-30T03:17:35.576Z,3.80
2019-03-30T03:20:05.514Z,4.00
2019-03-30T03:22:35.406Z,4.03
2019-03-30T03:25:05.788Z,4.67
2019-03-30T03:27:35.637Z,4.77
2019-03-30T03:30:17.775Z,4.10
2019-03-30T03:32:47.768Z,3.77
2019-03-30T03:35:17.723Z,4.40
2019-03-30T03:37:47.588Z,4.23
2019-03-30T03:40:17.513Z,4.40
2019-03-30T03:42:47.321Z,4.23
2019-03-30T03:45:17.363Z,4.47
2019-03-30T03:47:47.254Z,4.60
2019-03-30T03:50:38.525Z,4.37
2019-03-30T03:53:08.342Z,4.30
2019-03-30T03:55:38.532Z,4.40
2019-03-30T03:58:08.550Z,4.13
2019-03-30T04:00:38.570Z,4.10
2019-03-30T04:03:09.428Z,4.03
2019-03-30T04:05:40.470Z,4.10
2019-03-30T04:08:10.345Z,3.87
2019-03-30T04:10:40.251Z,4.17
2019-03-30T04:13:10.140Z,4.10
2019-03-30T04:15:40.307Z,4.73
2019-03-30T04:18:10.126Z,4.53
2019-03-30T04:20:40.067Z,3.90
2019-03-30T04:23:10.038Z,3.83
2019-03-30T04:25:39.976Z,4.60
2019-03-30T04:28:09.855Z,4.10
2019-03-30T04:30:39.736Z,4.70
2019-03-30T04:33:10.587Z,4.90
2019-03-30T04:35:40.537Z,4.10
2019-03-30T04:38:14.102Z,4.10
2019-03-30T04:40:42.497Z,4.60
2019-03-30T04:43:12.536Z,4.30
2019-03-30T04:45:53.642Z,4.07
2019-03-30T04:48:23.586Z,4.40
2019-03-30T04:50:53.672Z,4.80
2019-03-30T04:53:23.580Z,4.30
2019-03-30T04:55:53.379Z,5.17
2019-03-30T04:58:23.482Z,4.87
2019-03-30T05:00:59.625Z,4.50
2019-03-30T05:03:29.438Z,4.40
2019-03-30T05:05:59.149Z,4.80
2019-03-30T05:08:29.190Z,4.80
2019-03-30T05:10:58.986Z,4.70
2019-03-30T05:13:28.983Z,4.83
2019-03-30T05:15:59.754Z,4.03
2019-03-30T05:18:29.646Z,4.50
2019-03-30T05:20:59.608Z,4.60
2019-03-30T05:23:29.395Z,4.37
2019-03-30T05:25:59.546Z,4.17
2019-03-30T05:28:29.549Z,4.63
2019-03-30T05:30:59.377Z,4.77
2019-03-30T05:33:29.357Z,5.17
2019-03-30T05:36:05.880Z,4.90
2019-03-30T05:38:36.350Z,4.73
2019-03-30T05:41:06.607Z,5.00
2019-03-30T05:43:41.774Z,4.53
2019-03-30T05:46:11.589Z,4.50
2019-03-30T05:48:41.345Z,4.97
2019-03-30T05:51:12.285Z,4.87
2019-03-30T05:53:42.197Z,4.67
2019-03-30T05:56:12.020Z,4.53
2019-03-30T05:58:42.050Z,4.73
2019-03-30T06:01:17.638Z,4.20
2019-03-30T06:03:47.695Z,5.03
2019-03-30T06:06:17.718Z,4.20
2019-03-30T06:08:47.589Z,4.73
2019-03-30T06:11:17.568Z,4.67
2019-03-30T06:13:47.434Z,4.80
2019-03-30T06:16:17.258Z,4.77
2019-03-30T06:18:47.431Z,5.10
2019-03-30T06:21:23.691Z,4.67
2019-03-30T06:23:53.615Z,5.00
2019-03-30T06:26:23.703Z,4.40
2019-03-30T06:28:53.674Z,4.90
2019-03-30T06:31:23.523Z,4.67
2019-03-30T06:33:53.598Z,5.80
2019-03-30T06:36:23.456Z,5.10
2019-03-30T06:38:53.415Z,4.70
2019-03-30T06:41:23.301Z,4.93
2019-03-30T06:43:53.169Z,5.07
2019-03-30T06:46:23.127Z,5.13
2019-03-30T06:48:52.840Z,5.30
2019-03-30T06:51:22.757Z,4.77
2019-03-30T06:53:52.614Z,4.50
2019-03-30T06:56:24.210Z,5.13
2019-03-30T06:58:54.146Z,3.90
2019-03-30T07:01:23.985Z,4.40
2019-03-30T07:03:53.914Z,4.50
2019-03-30T07:06:23.918Z,4.50
2019-03-30T07:08:59.755Z,4.63
2019-03-30T07:11:30.000Z,4.80
2019-03-30T07:14:05.930Z,4.23
2019-03-30T07:16:54.663Z,4.70
2019-03-30T07:19:24.765Z,4.80
2019-03-30T07:21:54.670Z,4.53
2019-03-30T07:24:39.610Z,4.87
2019-03-30T07:27:09.567Z,5.40
2019-03-30T07:29:41.872Z,4.80
2019-03-30T07:32:11.745Z,5.20
2019-03-30T07:34:41.968Z,5.40
2019-03-30T07:37:12.138Z,4.93
2019-03-30T07:39:42.202Z,4.63
2019-03-30T07:42:23.952Z,4.77
2019-03-30T07:44:53.724Z,4.77
2019-03-30T07:47:23.827Z,5.00
2019-03-30T07:49:53.977Z,4.60
2019-03-30T07:52:23.679Z,4.17
2019-03-30T07:54:53.582Z,4.80
2019-03-30T07:57:23.631Z,4.20
2019-03-30T07:59:53.940Z,3.97
2019-03-30T08:02:24.913Z,4.40
2019-03-30T08:05:10.752Z,4.40
2019-03-30T08:07:40.699Z,5.07
2019-03-30T08:10:10.480Z,4.60
2019-03-30T08:12:40.522Z,4.00
2019-03-30T08:15:11.831Z,3.90
2019-03-30T08:17:41.830Z,4.37
2019-03-30T08:20:11.619Z,4.53
2019-03-30T08:22:42.287Z,4.40
2019-03-30T08:25:17.873Z,4.10
2019-03-30T08:27:47.738Z,4.10
2019-03-30T08:30:17.515Z,4.00
2019-03-30T08:32:53.776Z,4.17
2019-03-30T08:35:23.553Z,3.93
2019-03-30T08:37:53.802Z,3.90
2019-03-30T08:40:23.685Z,4.03
2019-03-30T08:42:53.585Z,4.20
2019-03-30T08:45:23.590Z,3.67
2019-03-30T08:47:53.657Z,3.60
2019-03-30T08:50:23.329Z,3.73
2019-03-30T08:52:53.306Z,4.20
2019-03-30T08:55:23.196Z,3.93
2019-03-30T08:57:53.153Z,3.70
2019-03-30T09:00:39.906Z,3.70
2019-03-30T09:03:09.948Z,3.40
2019-03-30T09:05:39.915Z,3.97
2019-03-30T09:08:11.819Z,3.80
2019-03-30T09:10:41.631Z,3.43
2019-03-30T09:13:11.463Z,3.63
2019-03-30T09:15:41.234Z,3.70
2019-03-30T09:18:11.628Z,3.90
2019-03-30T09:20:41.572Z,4.23
2019-03-30T09:23:11.464Z,3.43
2019-03-30T09:25:41.452Z,3.57
2019-03-30T09:28:11.309Z,3.93
2019-03-30T09:30:41.363Z,4.37
2019-03-30T09:33:11.482Z,3.57
2019-03-30T09:35:41.476Z,4.20
2019-03-30T09:38:14.593Z,4.60
2019-03-30T09:40:42.745Z,3.90
2019-03-30T09:43:12.598Z,4.37
2019-03-30T09:45:42.511Z,4.00
2019-03-30T09:48:17.822Z,3.30
2019-03-30T09:50:47.637Z,4.10
2019-03-30T09:53:17.653Z,3.23
2019-03-30T09:55:47.418Z,4.23
2019-03-30T09:58:17.945Z,4.30
2019-03-30T10:00:47.746Z,3.60
2019-03-30T10:03:17.681Z,3.80
2019-03-30T10:05:47.686Z,3.80
2019-03-30T10:08:17.817Z,4.30
2019-03-30T10:10:47.598Z,3.60
2019-03-30T10:13:17.519Z,3.70
2019-03-30T10:15:47.510Z,3.80
2019-03-30T10:18:17.296Z,3.80
2019-03-30T10:20:48.342Z,3.87
2019-03-30T10:23:18.220Z,4.10
2019-03-30T10:25:48.221Z,4.10
2019-03-30T10:28:18.037Z,4.60
2019-03-30T10:30:47.874Z,3.70
2019-03-30T10:33:17.812Z,3.50
2019-03-30T10:35:47.813Z,4.37
2019-03-30T10:38:18.563Z,4.00
2019-03-30T10:40:48.412Z,3.87
2019-03-30T10:43:23.978Z,4.13
2019-03-30T10:45:53.941Z,3.90
2019-03-30T10:48:23.951Z,4.63
2019-03-30T10:50:53.817Z,4.00
2019-03-30T10:53:23.821Z,4.03
2019-03-30T10:55:53.905Z,4.20
2019-03-30T10:58:23.793Z,4.10
2019-03-30T11:00:53.930Z,4.17
2019-03-30T11:03:24.981Z,4.20
2019-03-30T11:05:54.799Z,4.03
2019-03-30T11:08:24.727Z,4.50
2019-03-30T11:10:54.602Z,4.23
2019-03-30T11:13:24.521Z,4.80
2019-03-30T11:15:54.497Z,4.27
2019-03-30T11:18:24.264Z,4.60
2019-03-30T11:20:54.231Z,4.57
2019-03-30T11:23:42.046Z,4.80
2019-03-30T11:26:17.855Z,4.40
2019-03-30T11:28:47.632Z,4.50
2019-03-30T11:31:17.938Z,5.17
2019-03-30T11:33:47.787Z,5.20
2019-03-30T11:36:18.805Z,4.10
2019-03-30T11:38:54.087Z,4.23
2019-03-30T11:41:25.042Z,4.00
2019-03-30T11:43:59.926Z,4.63
2019-03-30T11:46:29.935Z,4.47
2019-03-30T11:49:00.479Z,4.60
2019-03-30T11:51:30.322Z,4.30
2019-03-30T11:54:00.264Z,4.53
2019-03-30T11:56:30.150Z,4.00
2019-03-30T11:59:06.090Z,4.30
2019-03-30T12:01:36.136Z,4.53
2019-03-30T12:04:05.970Z,4.00
2019-03-30T12:06:36.006Z,4.27
2019-03-30T12:09:07.781Z,5.20
2019-03-30T12:11:37.782Z,4.53
2019-03-30T12:14:12.164Z,4.43
2019-03-30T12:16:42.201Z,3.73
2019-03-30T12:19:12.204Z,3.70
2019-03-30T12:21:42.206Z,4.27
2019-03-30T12:24:12.123Z,4.23
2019-03-30T12:26:42.069Z,3.70
2019-03-30T12:29:11.822Z,3.70
2019-03-30T12:31:41.710Z,3.70
2019-03-30T12:34:24.135Z,3.63
2019-03-30T12:36:55.797Z,3.83
2019-03-30T12:39:25.471Z,3.80
2019-03-30T12:41:59.970Z,3.13
2019-03-30T12:44:29.906Z,3.43
2019-03-30T12:46:59.789Z,3.93
2019-03-30T12:49:29.821Z,3.10
2019-03-30T12:51:59.968Z,2.87
2019-03-30T12:54:30.365Z,3.50
2019-03-30T12:57:00.542Z,2.33
2019-03-30T12:59:30.366Z,2.97
2019-03-30T13:02:00.338Z,2.90
2019-03-30T13:04:30.327Z,2.50
2019-03-30T13:07:00.359Z,2.80
2019-03-30T13:09:30.273Z,2.30
2019-03-30T13:12:00.103Z,2.97
2019-03-30T13:14:30.097Z,2.77
2019-03-30T13:16:59.915Z,2.47
2019-03-30T13:19:29.942Z,2.70
2019-03-30T13:21:59.764Z,2.20
2019-03-30T13:24:29.829Z,2.07
2019-03-30T13:26:59.600Z,2.20
2019-03-30T13:29:30.368Z,1.97
2019-03-30T13:32:00.319Z,2.10
2019-03-30T13:34:30.321Z,1.90
2019-03-30T13:37:00.370Z,2.20
2019-03-30T13:39:30.175Z,2.03
2019-03-30T13:42:00.150Z,1.97
2019-03-30T13:44:32.432Z,2.00
2019-03-30T13:47:02.544Z,2.00
2019-03-30T13:49:32.378Z,1.80
2019-03-30T13:52:02.354Z,1.93
2019-03-30T13:54:52.991Z,1.60
2019-03-30T13:57:24.057Z,1.70
2019-03-30T13:59:53.958Z,1.83
2019-03-30T14:02:23.965Z,1.80
2019-03-30T14:04:54.395Z,1.60
2019-03-30T14:07:24.353Z,1.90
2019-03-30T14:09:54.184Z,1.90
2019-03-30T14:12:24.078Z,1.80
2019-03-30T14:14:55.211Z,1.90
2019-03-30T14:17:25.164Z,1.60
2019-03-30T14:19:55.213Z,2.10
2019-03-30T14:22:36.153Z,1.73
2019-03-30T14:25:06.647Z,1.87
2019-03-30T14:27:36.611Z,1.87
2019-03-30T14:30:19.658Z,2.00
2019-03-30T14:32:49.688Z,1.90
2019-03-30T14:35:19.567Z,1.80
2019-03-30T14:37:49.526Z,1.63
2019-03-30T14:40:19.460Z,1.60
2019-03-30T14:42:49.343Z,1.73
2019-03-30T14:45:19.157Z,1.90
2019-03-30T14:47:49.120Z,1.90
2019-03-30T14:50:19.118Z,1.57
2019-03-30T14:53:01.390Z,1.70
2019-03-30T14:55:39.423Z,1.73
2019-03-30T14:58:29.223Z,1.70
2019-03-30T15:00:59.053Z,1.77
2019-03-30T15:03:29.061Z,1.73
2019-03-30T15:05:58.874Z,1.90
2019-03-30T15:08:29.719Z,1.80
2019-03-30T15:11:00.186Z,1.90
2019-03-30T15:13:30.283Z,2.00
2019-03-30T15:16:00.220Z,1.90
2019-03-30T15:18:30.475Z,2.10
2019-03-30T15:21:00.448Z,2.13
2019-03-30T15:23:30.389Z,1.63
2019-03-30T15:26:00.324Z,2.20
2019-03-30T15:28:30.283Z,2.03
2019-03-30T15:30:59.997Z,1.90
2019-03-30T15:33:30.072Z,2.03
2019-03-30T15:35:59.926Z,1.93
2019-03-30T15:38:29.806Z,1.90
2019-03-30T15:41:00.253Z,1.83
2019-03-30T15:43:38.105Z,1.70
2019-03-30T15:46:01.762Z,2.10
2019-03-30T15:48:31.703Z,1.60
2019-03-30T15:51:01.617Z,2.23
2019-03-30T15:53:32.727Z,2.07
2019-03-30T15:56:02.787Z,1.90
2019-03-30T15:58:32.738Z,2.10
2019-03-30T16:01:06.779Z,1.93
2019-03-30T16:03:42.271Z,2.10
2019-03-30T16:06:18.266Z,1.93
2019-03-30T16:08:48.005Z,2.17
2019-03-30T16:11:18.124Z,2.10
2019-03-30T16:13:48.028Z,2.00
2019-03-30T16:16:17.834Z,1.97
2019-03-30T16:18:47.818Z,2.20
2019-03-30T16:21:17.651Z,2.47
2019-03-30T16:23:47.685Z,1.93
2019-03-30T16:26:17.684Z,2.10
2019-03-30T16:28:47.582Z,2.37
2019-03-30T16:31:17.591Z,2.10
2019-03-30T16:33:48.342Z,2.73
2019-03-30T16:36:18.193Z,2.13
2019-03-30T16:38:48.119Z,2.17
2019-03-30T16:41:18.090Z,2.30
2019-03-30T16:44:00.225Z,2.33
2019-03-30T16:46:30.121Z,2.27
2019-03-30T16:48:59.973Z,2.60
2019-03-30T16:51:30.015Z,2.40
2019-03-30T16:53:59.925Z,2.20
2019-03-30T16:56:29.845Z,2.60
2019-03-30T16:58:59.802Z,2.60
2019-03-30T17:01:30.485Z,2.70
2019-03-30T17:04:00.278Z,2.50
2019-03-30T17:06:42.096Z,2.50
2019-03-30T17:09:12.117Z,2.30
2019-03-30T17:11:41.981Z,2.20
2019-03-30T17:14:12.651Z,2.53
2019-03-30T17:16:51.716Z,3.00
2019-03-30T17:19:24.345Z,2.80
2019-03-30T17:22:06.275Z,2.70
2019-03-30T17:24:36.215Z,2.80
2019-03-30T17:27:06.149Z,2.60
2019-03-30T17:29:36.159Z,2.50
2019-03-30T17:32:06.112Z,2.50
2019-03-30T17:34:36.163Z,2.87
2019-03-30T17:37:06.107Z,2.87
2019-03-30T17:39:35.972Z,2.80
2019-03-30T17:42:09.110Z,2.87
2019-03-30T17:44:48.194Z,2.77
2019-03-30T17:47:17.962Z,2.60
2019-03-30T17:50:00.352Z,2.60
2019-03-30T17:52:30.403Z,2.63
2019-03-30T17:55:00.351Z,2.83
2019-03-30T17:57:30.139Z,2.43
2019-03-30T18:00:00.538Z,3.00
2019-03-30T18:02:30.438Z,3.00
2019-03-30T18:05:00.445Z,3.03
2019-03-30T18:07:30.332Z,2.77
2019-03-30T18:10:03.303Z,2.50
2019-03-30T18:12:31.720Z,2.87
2019-03-30T18:15:02.002Z,2.60
2019-03-30T18:17:31.992Z,2.67
2019-03-30T18:20:01.990Z,2.83
2019-03-30T18:22:32.824Z,3.33
2019-03-30T18:25:02.797Z,2.60
2019-03-30T18:27:32.654Z,2.87
2019-03-30T18:30:07.788Z,3.17
2019-03-30T18:32:47.441Z,3.60
2019-03-30T18:35:30.743Z,3.07
2019-03-30T18:38:02.481Z,8.73
2019-03-30T18:40:33.143Z,7.10
2019-03-30T18:43:06.383Z,6.90
2019-03-30T18:45:36.286Z,8.17
2019-03-30T18:48:16.729Z,8.20
2019-03-30T18:50:46.908Z,7.27
2019-03-30T18:53:17.140Z,8.93
2019-03-30T18:55:47.349Z,8.10
2019-03-30T18:58:24.440Z,7.40
2019-03-30T19:00:54.662Z,8.13
2019-03-30T19:03:24.755Z,8.33
2019-03-30T19:05:54.784Z,9.43
2019-03-30T19:09:16.096Z,13.17
2019-03-30T19:11:48.782Z,9.83
2019-03-30T19:14:18.796Z,11.30
2019-03-30T19:16:48.910Z,10.20
2019-03-30T19:19:18.867Z,10.43
2019-03-30T19:21:48.958Z,12.70
2019-03-30T19:24:19.068Z,13.10
2019-03-30T19:26:51.138Z,13.33
2019-03-30T19:29:21.062Z,13.20
2019-03-30T19:31:50.874Z,12.90
2019-03-30T19:34:20.724Z,13.40
2019-03-30T19:36:50.558Z,11.43
2019-03-30T19:39:20.565Z,11.23
2019-03-30T19:41:54.435Z,10.93
2019-03-30T19:44:24.246Z,10.73
2019-03-30T19:46:54.245Z,11.00
2019-03-30T19:49:24.301Z,10.10
2019-03-30T19:51:54.244Z,10.97
2019-03-30T19:54:24.284Z,10.03
2019-03-30T19:56:54.294Z,9.87
2019-03-30T19:59:24.489Z,11.13
2019-03-30T20:01:54.332Z,10.07
2019-03-30T20:04:24.519Z,10.93
2019-03-30T20:06:54.283Z,9.60
2019-03-30T20:09:24.212Z,10.50
2019-03-30T20:11:54.054Z,10.83
2019-03-30T20:14:24.487Z,10.60
2019-03-30T20:16:54.505Z,10.13
2019-03-30T20:19:24.326Z,10.87
2019-03-30T20:21:57.191Z,10.77
2019-03-30T20:24:25.984Z,10.83
2019-03-30T20:26:56.793Z,10.90
2019-03-30T20:29:26.853Z,11.50
2019-03-30T20:31:56.730Z,10.30
2019-03-30T20:34:26.658Z,10.50
2019-03-30T20:36:56.569Z,10.50
2019-03-30T20:39:30.455Z,10.80
2019-03-30T20:42:00.384Z,10.43
2019-03-30T20:44:30.439Z,9.63
2019-03-30T20:47:00.245Z,10.03
2019-03-30T20:49:30.193Z,9.67
2019-03-30T20:52:06.292Z,10.07
2019-03-30T20:54:36.136Z,9.93
2019-03-30T20:57:07.168Z,9.77
2019-03-30T20:59:48.359Z,9.73
2019-03-30T21:02:18.245Z,8.70
2019-03-30T21:04:49.423Z,9.20
2019-03-30T21:07:24.460Z,10.10
2019-03-30T21:09:54.162Z,9.70
2019-03-30T21:12:23.996Z,10.07
2019-03-30T21:14:53.935Z,10.20
2019-03-30T21:17:23.841Z,9.47
2019-03-30T21:19:53.750Z,8.70
2019-03-30T21:22:23.862Z,9.20
2019-03-30T21:24:53.777Z,9.27
2019-03-30T21:27:23.759Z,9.47
2019-03-30T21:29:55.001Z,9.67
2019-03-30T21:32:30.315Z,9.60
2019-03-30T21:35:00.369Z,8.80
2019-03-30T21:37:30.412Z,8.83
2019-03-30T21:40:00.488Z,9.17
2019-03-30T21:42:30.442Z,9.10
2019-03-30T21:45:00.551Z,9.43
2019-03-30T21:47:30.607Z,9.27
2019-03-30T21:50:00.555Z,9.37
2019-03-30T21:52:30.473Z,9.60
2019-03-30T21:55:12.544Z,9.43
2019-03-30T21:57:48.610Z,8.23
2019-03-30T22:00:34.738Z,9.67
2019-03-30T22:03:04.586Z,8.27
2019-03-30T22:05:35.199Z,9.13
2019-03-30T22:08:05.608Z,9.23
2019-03-30T22:10:37.055Z,9.50
2019-03-30T22:13:07.498Z,8.90
2019-03-30T22:15:37.375Z,9.17
2019-03-30T22:18:08.193Z,8.67
2019-03-30T22:20:37.965Z,8.83
2019-03-30T22:23:07.687Z,9.53
2019-03-30T22:25:37.557Z,8.93
2019-03-30T22:28:07.606Z,8.90
2019-03-30T22:30:37.792Z,8.10
2019-03-30T22:33:07.776Z,9.10
2019-03-30T22:35:37.607Z,8.40
2019-03-30T22:38:12.585Z,9.23
2019-03-30T22:40:48.436Z,8.97
2019-03-30T22:43:18.296Z,8.77
2019-03-30T22:45:48.160Z,8.23
2019-03-30T22:48:18.051Z,8.73
2019-03-30T22:50:48.018Z,8.70
2019-03-30T22:53:17.967Z,8.60
2019-03-30T22:55:47.804Z,8.93
2019-03-30T22:58:17.764Z,8.60
2019-03-30T23:00:59.296Z,8.63
2019-03-30T23:03:42.382Z,8.90
2019-03-30T23:06:12.273Z,9.00
2019-03-30T23:08:43.016Z,9.03
2019-03-30T23:11:12.919Z,8.10
2019-03-30T23:13:42.896Z,9.00
2019-03-30T23:16:12.717Z,8.47
2019-03-30T23:18:45.232Z,8.57
2019-03-30T23:21:14.415Z,8.63
2019-03-30T23:23:44.368Z,8.70
2019-03-30T23:26:14.307Z,8.87
2019-03-30T23:28:44.236Z,8.83
2019-03-30T23:31:14.121Z,8.60
2019-03-30T23:33:43.978Z,7.90
2019-03-30T23:36:24.699Z,8.53
2019-03-30T23:38:54.544Z,8.03
2019-03-30T23:41:24.472Z,8.87
2019-03-30T23:43:54.598Z,8.10
2019-03-30T23:46:30.411Z,8.33
2019-03-30T23:49:00.307Z,8.90
2019-03-30T23:51:30.234Z,8.87
2019-03-30T23:54:00.133Z,8.47
2019-03-30T23:56:30.494Z,7.93
2019-03-30T23:59:00.466Z,8.37
